This is the latest recevied weather packets stored in our database for station/object SP2WPY-13. If no packets are shown the sender has not sent any weather packets the latest 10 day(s).
| Time | Temp. | Humidity | Pressure | Rain* | Wind** | Luminosity | Snow |
|---|---|---|---|---|---|---|---|
| 1788018344 | 25.56° C | 60% | 1013.6 hPa | - | - | - | - |
| 1788018021 | 25° C | 63% | 1013.5 hPa | - | - | - | - |
| 1788017702 | 24.44° C | 62% | 1013.5 hPa | - | - | - | - |
| 1788017425 | 25.56° C | 61% | 1013.5 hPa | - | - | - | - |
| 1788017107 | 24.44° C | 66% | 1013.5 hPa | - | - | - | - |
| 1788016832 | 23.89° C | 64% | 1013.4 hPa | - | - | - | - |
| 1788016512 | 24.44° C | 62% | 1013.5 hPa | - | - | - | - |
| 1788016239 | 25° C | 61% | 1013.5 hPa | - | - | - | - |
| 1788015919 | 25° C | 63% | 1013.4 hPa | - | - | - | - |
| 1788015645 | 25° C | 64% | 1013.4 hPa | - | - | - | - |
| 1788015325 | 24.44° C | 67% | 1013.4 hPa | - | - | - | - |
| 1788015003 | 24.44° C | 68% | 1013.4 hPa | - | - | - | - |
| 1788014731 | 23.89° C | 70% | 1013.4 hPa | - | - | - | - |
| 1788014408 | 23.89° C | 72% | 1013.3 hPa | - | - | - | - |
| 1788014135 | 23.89° C | 74% | 1013.4 hPa | - | - | - | - |
| 1788013815 | 23.33° C | 75% | 1013.3 hPa | - | - | - | - |
| 1788013541 | 23.33° C | 74% | 1013.3 hPa | - | - | - | - |
| 1788013221 | 23.89° C | 71% | 1013.2 hPa | - | - | - | - |
| 1788012901 | 24.44° C | 67% | 1013.3 hPa | - | - | - | - |
| 1788012627 | 25° C | 68% | 1013.2 hPa | - | - | - | - |
| 1788012307 | 24.44° C | 75% | 1013.2 hPa | - | - | - | - |
| 1788012033 | 23.89° C | 78% | 1013.3 hPa | - | - | - | - |
| 1788011713 | 23.33° C | 79% | 1013.3 hPa | - | - | - | - |
| 1788011439 | 22.78° C | 79% | 1013.2 hPa | - | - | - | - |
| 1788011120 | 22.78° C | 82% | 1013.2 hPa | - | - | - | - |
* Rain since midnight (hover to see other rain measurements)
** Current wind speed in m/s (hover to see current wind gust speed)